Time;durP1;ratioP1;P1;durP2;ratioP2;P2;SDS_P1;SDS_P2;PMS_P1;PMS_P2;Temp;Humidity;BMP_temperature;BMP_pressure;BME280_temperature;BME280_humidity;BME280_pressure;Samples;Min_cycle;Max_cycle;Signal;HPM_P1;HPM_P2
2022/04/25 00:01:17;;;;;;;1.13;0.50;;;7.50;99.90;;;;;;5056290;28;20033;-81
2022/04/25 00:03:44;;;;;;;1.83;0.70;;;7.50;99.90;;;;;;5055936;28;20025;-81
2022/04/25 00:06:10;;;;;;;0.77;0.40;;;7.40;99.90;;;;;;5056346;28;20021;-81
2022/04/25 00:08:35;;;;;;;1.95;0.47;;;7.40;99.90;;;;;;5057494;28;20420;-81
2022/04/25 00:11:01;;;;;;;0.80;0.50;;;7.40;99.90;;;;;;5056131;28;20029;-81
2022/04/25 00:13:27;;;;;;;2.38;0.40;;;7.40;99.90;;;;;;5055767;28;20110;-81
2022/04/25 00:15:54;;;;;;;0.63;0.40;;;7.40;99.90;;;;;;5056485;28;20385;-80
2022/04/25 00:18:20;;;;;;;1.02;0.40;;;7.40;99.90;;;;;;5055144;28;20025;-80
2022/04/25 00:20:46;;;;;;;1.50;0.52;;;7.40;99.90;;;;;;5056478;28;20025;-80
2022/04/25 00:23:12;;;;;;;0.50;0.40;;;7.40;99.90;;;;;;5056755;28;20055;-80
2022/04/25 00:25:37;;;;;;;0.70;0.50;;;7.40;99.90;;;;;;5055116;28;20021;-80
2022/04/25 00:28:05;;;;;;;1.02;0.57;;;7.40;99.90;;;;;;5056090;28;20021;-80
2022/04/25 00:30:31;;;;;;;0.60;0.40;;;7.40;99.90;;;;;;5056271;28;20497;-80
2022/04/25 00:32:58;;;;;;;1.65;0.50;;;7.40;99.90;;;;;;5056077;28;20033;-80
2022/04/25 00:35:24;;;;;;;0.68;0.35;;;7.40;99.90;;;;;;5056636;28;20040;-80
2022/04/25 00:37:51;;;;;;;0.30;0.30;;;7.30;99.90;;;;;;5055916;28;20044;-80
2022/04/25 00:40:22;;;;;;;0.63;0.40;;;7.30;99.90;;;;;;5054541;28;20029;-80
2022/04/25 00:42:49;;;;;;;1.00;0.40;;;7.30;99.90;;;;;;5055689;28;20017;-80
2022/04/25 00:45:16;;;;;;;0.85;0.40;;;7.40;99.90;;;;;;5054742;28;20388;-80
2022/04/25 00:47:42;;;;;;;0.70;0.40;;;7.40;99.90;;;;;;5054275;28;20079;-80
2022/04/25 00:50:09;;;;;;;1.20;0.55;;;7.40;99.90;;;;;;5054643;28;20055;-80
2022/04/25 00:52:36;;;;;;;1.77;0.40;;;7.50;99.90;;;;;;5055788;28;20025;-80
2022/04/25 00:55:06;;;;;;;1.27;0.45;;;7.50;99.90;;;;;;5055407;28;20104;-80
2022/04/25 00:57:31;;;;;;;0.80;0.50;;;7.50;99.90;;;;;;5055494;28;20032;-80
2022/04/25 00:59:58;;;;;;;1.27;0.40;;;7.50;99.90;;;;;;5055663;28;20021;-80
2022/04/25 01:02:26;;;;;;;0.93;0.50;;;7.50;99.90;;;;;;5055419;28;20442;-80
2022/04/25 01:04:53;;;;;;;0.98;0.55;;;7.60;99.90;;;;;;5055240;28;20074;-80
2022/04/25 01:07:19;;;;;;;0.70;0.47;;;7.60;99.90;;;;;;5053026;28;20025;-80
2022/04/25 01:09:45;;;;;;;0.30;0.30;;;7.70;99.90;;;;;;5055763;28;20047;-80
2022/04/25 01:12:11;;;;;;;0.63;0.45;;;7.70;99.90;;;;;;5055363;28;20036;-80
2022/04/25 01:14:36;;;;;;;0.65;0.47;;;7.80;99.90;;;;;;5054872;28;20469;-80
2022/04/25 01:17:03;;;;;;;0.60;0.50;;;7.80;99.90;;;;;;5054909;28;20037;-80
2022/04/25 01:19:28;;;;;;;1.48;0.45;;;7.80;99.90;;;;;;5054833;28;20489;-80
2022/04/25 01:22:14;;;;;;;0.65;0.50;;;7.80;99.90;;;;;;5053574;28;20082;-80
2022/04/25 01:27:24;;;;;;;0.75;0.40;;;7.80;99.90;;;;;;5054498;28;20504;-80
2022/04/25 01:29:54;;;;;;;0.60;0.40;;;7.70;99.90;;;;;;5053616;28;20029;-80
2022/04/25 01:32:22;;;;;;;0.93;0.50;;;7.70;99.90;;;;;;5055091;28;20029;-80
2022/04/25 01:34:48;;;;;;;1.02;0.60;;;7.60;99.90;;;;;;5053311;28;20393;-81
2022/04/25 01:37:16;;;;;;;0.55;0.32;;;7.60;99.90;;;;;;5053095;28;20420;-81
2022/04/25 01:39:42;;;;;;;1.85;0.50;;;7.60;99.90;;;;;;5054594;28;20048;-81
2022/04/25 01:42:08;;;;;;;0.80;0.47;;;7.60;99.90;;;;;;5053114;28;20025;-81
2022/04/25 01:44:35;;;;;;;0.90;0.40;;;7.60;99.90;;;;;;5054109;28;20018;-81
2022/04/25 01:47:02;;;;;;;1.05;0.50;;;7.60;99.90;;;;;;5054345;28;20465;-81
2022/04/25 01:49:28;;;;;;;1.83;0.90;;;7.60;99.90;;;;;;5054287;28;20017;-81
2022/04/25 01:51:54;;;;;;;2.17;1.10;;;7.60;99.90;;;;;;5052934;28;20021;-81
2022/04/25 01:54:26;;;;;;;1.52;0.77;;;7.60;99.90;;;;;;5053266;28;20115;-81
2022/04/25 01:56:55;;;;;;;1.25;0.80;;;7.50;99.90;;;;;;5054898;28;20543;-80
2022/04/25 01:59:22;;;;;;;2.47;1.52;;;7.50;99.90;;;;;;5054653;28;20039;-80
2022/04/25 02:01:49;;;;;;;3.20;2.15;;;7.40;99.90;;;;;;5054223;28;20021;-80
2022/04/25 02:04:15;;;;;;;5.45;3.38;;;7.40;99.90;;;;;;5054433;28;20083;-81
2022/04/25 02:06:40;;;;;;;4.38;2.90;;;7.50;99.90;;;;;;5055426;28;20021;-80
2022/04/25 02:09:08;;;;;;;2.88;1.80;;;7.50;99.90;;;;;;5055502;28;20489;-81
2022/04/25 02:11:34;;;;;;;2.22;1.35;;;7.50;99.90;;;;;;5053681;28;20489;-81
2022/04/25 02:13:59;;;;;;;1.77;1.05;;;7.60;99.90;;;;;;5053521;28;20044;-81
2022/04/25 02:16:25;;;;;;;1.85;1.13;;;7.60;99.90;;;;;;5052233;28;20029;-81
2022/04/25 02:18:52;;;;;;;2.92;1.80;;;7.60;99.90;;;;;;5054706;28;20037;-81
2022/04/25 02:21:18;;;;;;;2.35;1.60;;;7.70;99.90;;;;;;5058263;28;20462;-81
2022/04/25 02:23:44;;;;;;;2.00;1.33;;;7.60;99.90;;;;;;5056313;28;20071;-81
2022/04/25 02:26:10;;;;;;;2.47;1.65;;;7.60;99.90;;;;;;5057572;28;20412;-81
2022/04/25 02:28:37;;;;;;;1.70;1.13;;;7.60;99.90;;;;;;5057562;28;20025;-81
2022/04/25 02:31:04;;;;;;;1.80;1.10;;;7.60;99.90;;;;;;5057432;28;20035;-81
2022/04/25 02:33:34;;;;;;;1.85;1.00;;;7.60;99.90;;;;;;5057529;28;20063;-81
2022/04/25 02:36:04;;;;;;;2.17;1.10;;;7.60;99.90;;;;;;5057494;28;20491;-81
2022/04/25 02:38:31;;;;;;;1.63;1.00;;;7.60;99.90;;;;;;5057332;28;20025;-81
2022/04/25 02:41:06;;;;;;;1.10;0.75;;;7.60;99.90;;;;;;5055781;28;20029;-80
2022/04/25 02:43:34;;;;;;;2.25;0.73;;;7.60;99.90;;;;;;5055954;28;20067;-80
2022/04/25 02:46:02;;;;;;;1.08;0.70;;;7.70;99.90;;;;;;5055996;28;20551;-81
2022/04/25 02:48:28;;;;;;;0.80;0.55;;;7.70;99.90;;;;;;5056315;28;20021;-81
2022/04/25 02:50:54;;;;;;;1.58;0.73;;;7.70;99.90;;;;;;5056256;28;20029;-81
2022/04/25 02:53:19;;;;;;;1.08;0.80;;;7.70;99.90;;;;;;5056387;28;20028;-80
2022/04/25 02:55:45;;;;;;;1.42;0.70;;;7.70;99.90;;;;;;5059211;28;20036;-80
2022/04/25 02:58:11;;;;;;;0.80;0.63;;;7.80;99.90;;;;;;5057482;28;20064;-80
2022/04/25 03:00:37;;;;;;;1.33;0.80;;;7.80;99.90;;;;;;5056903;28;20074;-80
2022/04/25 03:03:03;;;;;;;1.30;0.80;;;7.80;99.90;;;;;;5057026;28;20537;-80
2022/04/25 03:05:29;;;;;;;2.25;0.80;;;7.80;99.90;;;;;;5055601;28;20035;-81
2022/04/25 03:07:54;;;;;;;1.08;0.70;;;7.80;99.90;;;;;;5057017;28;20545;-81
2022/04/25 03:10:20;;;;;;;1.10;0.70;;;7.70;99.90;;;;;;5057085;28;20035;-81
2022/04/25 03:12:46;;;;;;;2.03;0.80;;;7.70;99.90;;;;;;5055860;28;20129;-81
2022/04/25 03:15:11;;;;;;;0.90;0.63;;;7.80;99.90;;;;;;5056903;28;20425;-81
2022/04/25 03:17:38;;;;;;;1.77;0.80;;;7.80;99.90;;;;;;5056512;28;20052;-81
2022/04/25 03:20:05;;;;;;;1.20;0.70;;;7.70;99.90;;;;;;5056536;28;20048;-81
2022/04/25 03:22:31;;;;;;;2.40;0.98;;;7.60;99.90;;;;;;5056634;28;20025;-80
2022/04/25 03:24:56;;;;;;;0.90;0.60;;;7.60;99.90;;;;;;5055102;28;20184;-81
2022/04/25 03:27:22;;;;;;;2.08;0.63;;;7.60;99.90;;;;;;5055059;28;20057;-81
2022/04/25 03:29:47;;;;;;;1.15;0.70;;;7.50;99.90;;;;;;5055415;28;20021;-81
2022/04/25 03:32:13;;;;;;;1.52;0.68;;;7.50;99.90;;;;;;5055010;28;20491;-81
2022/04/25 03:34:41;;;;;;;1.77;0.90;;;7.40;99.90;;;;;;5052697;28;20112;-81
2022/04/25 03:37:11;;;;;;;1.50;0.70;;;7.40;99.90;;;;;;5052095;28;20535;-80
2022/04/25 03:39:37;;;;;;;1.20;0.80;;;7.40;99.90;;;;;;5056831;28;20025;-80
2022/04/25 03:42:03;;;;;;;1.83;0.80;;;7.40;99.90;;;;;;5055153;28;20067;-80
2022/04/25 03:44:29;;;;;;;1.45;0.90;;;7.40;99.90;;;;;;5055987;28;20033;-80
2022/04/25 03:46:54;;;;;;;2.67;0.93;;;7.40;99.90;;;;;;5054717;28;20036;-80
2022/04/25 03:49:21;;;;;;;2.58;1.00;;;7.40;99.90;;;;;;5054783;28;20017;-80
2022/04/25 03:51:47;;;;;;;1.63;1.08;;;7.40;99.90;;;;;;5055024;28;20079;-80
2022/04/25 03:57:09;;;;;;;1.95;1.17;;;7.50;99.90;;;;;;5054905;28;20111;-80
2022/04/25 03:57:10;;;;;;;1.55;1.02;;;7.50;99.90;;;;;;5055703;28;20049;-80
2022/04/25 03:59:36;;;;;;;2.10;1.20;;;7.50;99.90;;;;;;5056089;28;20025;-80
2022/04/25 04:02:04;;;;;;;2.05;1.13;;;7.50;99.90;;;;;;5055779;28;20079;-80
2022/04/25 04:04:30;;;;;;;1.52;0.82;;;7.60;99.90;;;;;;5055520;28;20049;-80
2022/04/25 04:06:56;;;;;;;1.55;0.90;;;7.60;99.90;;;;;;5055627;28;20048;-80
2022/04/25 04:12:06;;;;;;;1.30;0.80;;;7.60;99.90;;;;;;5036503;28;20028;-81
2022/04/25 04:14:32;;;;;;;1.60;0.82;;;7.60;99.90;;;;;;5055511;28;20096;-81
2022/04/25 04:16:58;;;;;;;2.17;1.50;;;7.70;99.90;;;;;;5054784;28;20111;-81
2022/04/25 04:19:24;;;;;;;2.10;1.42;;;7.60;99.90;;;;;;5054487;28;20113;-78
2022/04/25 04:21:50;;;;;;;1.77;1.15;;;7.70;99.90;;;;;;5055106;28;20064;-79
2022/04/25 04:24:15;;;;;;;1.83;1.20;;;7.60;99.90;;;;;;5056161;28;20104;-78
2022/04/25 04:26:42;;;;;;;2.15;1.52;;;7.70;99.90;;;;;;5054531;28;20496;-78
2022/04/25 04:29:08;;;;;;;1.77;1.02;;;7.70;99.90;;;;;;5055118;28;20017;-79
2022/04/25 04:31:34;;;;;;;1.73;1.05;;;7.60;99.90;;;;;;5056373;28;20025;-78
2022/04/25 04:33:59;;;;;;;1.30;0.82;;;7.70;99.90;;;;;;5055176;28;20033;-78
2022/04/25 04:36:26;;;;;;;1.70;1.00;;;7.60;99.90;;;;;;5055932;28;20032;-78
2022/04/25 04:38:52;;;;;;;2.55;1.05;;;7.70;99.90;;;;;;5056510;28;20033;-78
2022/04/25 04:41:18;;;;;;;2.78;1.75;;;7.70;99.90;;;;;;5056088;28;20033;-78
2022/04/25 04:43:44;;;;;;;4.28;2.05;;;7.70;99.90;;;;;;5056208;28;20032;-78
2022/04/25 04:46:10;;;;;;;3.60;1.67;;;7.70;99.90;;;;;;5056757;28;20039;-78
2022/04/25 04:48:35;;;;;;;2.58;1.45;;;7.70;99.90;;;;;;5056662;28;20044;-78
2022/04/25 04:51:01;;;;;;;2.60;1.52;;;7.70;99.90;;;;;;5056432;28;20078;-78
2022/04/25 04:53:27;;;;;;;1.98;1.38;;;7.70;99.90;;;;;;5056429;28;20047;-78
2022/04/25 04:55:53;;;;;;;2.65;1.30;;;7.70;99.90;;;;;;5055049;28;20031;-78
2022/04/25 04:58:19;;;;;;;1.95;1.30;;;7.70;99.90;;;;;;5056832;28;20024;-78
2022/04/25 05:00:46;;;;;;;1.98;1.50;;;7.80;99.90;;;;;;5056398;28;20032;-78
2022/04/25 05:03:15;;;;;;;2.30;1.58;;;7.70;99.90;;;;;;5056221;28;20025;-78
2022/04/25 05:05:45;;;;;;;3.25;1.60;;;7.70;99.90;;;;;;5055794;28;20477;-78
2022/04/25 05:08:11;;;;;;;3.03;1.90;;;7.70;99.90;;;;;;5054938;28;20111;-78
2022/04/25 05:10:36;;;;;;;3.15;1.60;;;7.70;99.90;;;;;;5054386;28;20053;-78
2022/04/25 05:13:03;;;;;;;2.88;1.58;;;7.70;99.90;;;;;;5055676;28;20017;-78
2022/04/25 05:15:29;;;;;;;2.03;1.50;;;7.70;99.90;;;;;;5055853;28;20458;-78
2022/04/25 05:17:55;;;;;;;2.70;1.58;;;7.70;99.90;;;;;;5054887;28;20439;-78
2022/04/25 05:20:23;;;;;;;2.63;1.70;;;7.70;99.90;;;;;;5055764;28;20107;-78
2022/04/25 05:22:50;;;;;;;7.40;2.50;;;7.80;99.90;;;;;;5054900;28;20385;-78
2022/04/25 05:25:20;;;;;;;3.50;2.30;;;7.80;99.90;;;;;;5056103;28;20124;-78
2022/04/25 05:27:55;;;;;;;3.17;2.17;;;7.80;99.90;;;;;;5054222;28;20067;-78
2022/04/25 05:30:23;;;;;;;3.65;2.67;;;7.80;99.90;;;;;;5055791;28;20025;-78
2022/04/25 05:32:53;;;;;;;3.28;2.50;;;7.80;99.90;;;;;;5055689;28;20066;-78
2022/04/25 05:35:21;;;;;;;3.33;2.58;;;7.70;99.90;;;;;;5055701;28;20018;-78
2022/04/25 05:37:47;;;;;;;5.60;2.38;;;7.70;99.90;;;;;;5054217;28;20029;-78
2022/04/25 05:40:14;;;;;;;4.90;2.78;;;7.70;99.90;;;;;;5055321;28;20025;-78
2022/04/25 05:42:41;;;;;;;3.83;2.63;;;7.80;99.90;;;;;;5055313;28;20027;-78
2022/04/25 05:45:09;;;;;;;3.75;2.75;;;7.80;99.90;;;;;;5055041;28;20025;-78
2022/04/25 05:47:35;;;;;;;3.13;2.30;;;7.90;99.90;;;;;;5055860;28;20036;-78
2022/04/25 05:52:46;;;;;;;5.43;2.90;;;7.90;99.90;;;;;;5055576;28;20099;-78
2022/04/25 05:55:12;;;;;;;4.68;2.90;;;7.90;99.90;;;;;;5055366;28;20031;-78
2022/04/25 05:57:40;;;;;;;4.95;2.80;;;8.00;99.90;;;;;;5055302;28;20462;-78
2022/04/25 06:00:08;;;;;;;4.53;2.70;;;8.00;99.90;;;;;;5055427;28;20032;-78
2022/04/25 06:02:41;;;;;;;6.18;4.03;;;8.00;99.90;;;;;;5053472;28;20028;-78
2022/04/25 06:05:07;;;;;;;7.25;4.63;;;8.10;99.90;;;;;;5055269;28;20021;-78
2022/04/25 06:07:33;;;;;;;3.78;2.78;;;8.10;99.90;;;;;;5055181;28;20021;-78
2022/04/25 06:10:00;;;;;;;3.50;2.60;;;8.20;99.90;;;;;;5055525;28;20048;-78
2022/04/25 06:12:26;;;;;;;4.45;2.70;;;8.20;99.90;;;;;;5055129;28;20028;-78
2022/04/25 06:15:02;;;;;;;4.15;2.53;;;8.20;99.90;;;;;;5053612;28;20035;-78
2022/04/25 06:17:28;;;;;;;4.00;2.60;;;8.20;99.90;;;;;;5055193;28;20125;-78
2022/04/25 06:19:54;;;;;;;3.22;2.15;;;8.20;99.90;;;;;;5054731;28;20385;-78
2022/04/25 06:22:20;;;;;;;5.00;2.80;;;8.30;99.90;;;;;;5053797;28;20068;-78
2022/04/25 06:24:46;;;;;;;5.70;2.97;;;8.30;99.90;;;;;;5054991;28;20017;-78
2022/04/25 06:27:15;;;;;;;3.88;3.00;;;8.30;99.90;;;;;;5055285;28;20027;-78
2022/04/25 06:29:44;;;;;;;3.22;2.47;;;8.30;99.90;;;;;;5053793;28;20079;-78
2022/04/25 06:32:10;;;;;;;3.85;2.10;;;8.30;99.90;;;;;;5054769;28;20530;-78
2022/04/25 06:34:36;;;;;;;3.13;2.03;;;8.30;99.90;;;;;;5055162;28;20406;-78
2022/04/25 06:37:02;;;;;;;2.90;2.17;;;8.40;99.90;;;;;;5053361;28;20054;-78
2022/04/25 06:39:28;;;;;;;2.83;1.77;;;8.40;99.90;;;;;;5055654;28;20552;-78
2022/04/25 06:41:54;;;;;;;4.35;2.80;;;8.40;99.90;;;;;;5054746;28;20029;-78
2022/04/25 06:44:20;;;;;;;4.28;3.00;;;8.40;99.90;;;;;;5054955;28;20062;-79
2022/04/25 06:46:45;;;;;;;5.70;4.10;;;8.40;99.90;;;;;;5055302;28;20542;-78
2022/04/25 06:49:20;;;;;;;5.35;3.80;;;8.50;99.90;;;;;;5056252;28;20094;-78
2022/04/25 06:51:47;;;;;;;4.90;3.38;;;8.50;99.90;;;;;;5055360;28;20025;-78
2022/04/25 06:54:14;;;;;;;4.75;3.38;;;8.50;99.90;;;;;;5055501;28;20079;-79
2022/04/25 06:56:41;;;;;;;5.97;4.53;;;8.50;99.90;;;;;;5054723;28;20029;-78
2022/04/25 06:59:07;;;;;;;5.93;4.13;;;8.50;99.90;;;;;;5054289;28;20044;-78
2022/04/25 07:01:32;;;;;;;5.65;4.93;;;8.50;99.90;;;;;;5054224;28;20493;-78
2022/04/25 07:03:59;;;;;;;4.00;3.13;;;8.60;99.90;;;;;;5055473;28;20024;-78
2022/04/25 07:06:25;;;;;;;3.92;2.63;;;8.50;99.90;;;;;;5058826;28;20435;-78
2022/04/25 07:08:50;;;;;;;3.95;2.78;;;8.60;99.90;;;;;;5058331;28;20104;-78
2022/04/25 07:11:16;;;;;;;5.13;3.53;;;8.60;99.90;;;;;;5056805;28;20385;-78
2022/04/25 07:13:42;;;;;;;8.38;5.68;;;8.60;99.90;;;;;;5058478;28;20029;-78
2022/04/25 07:16:12;;;;;;;11.05;7.55;;;8.70;99.90;;;;;;5056943;28;20040;-78
2022/04/25 07:18:38;;;;;;;5.85;3.70;;;8.70;99.90;;;;;;5058383;28;20135;-78
2022/04/25 07:29:22;;;;;;;4.88;3.45;;;8.70;99.90;;;;;;5058299;28;20103;-78
2022/04/25 07:31:50;;;;;;;3.83;3.05;;;8.70;99.90;;;;;;5058738;28;20495;-78
2022/04/25 07:34:20;;;;;;;4.43;3.50;;;8.70;99.90;;;;;;5057818;28;20104;-78
2022/04/25 07:36:51;;;;;;;3.92;2.65;;;8.70;99.90;;;;;;5058595;28;20025;-78
2022/04/25 07:39:20;;;;;;;;;;;8.70;99.90;;;;;;5059044;28;20508;-78
2022/04/25 07:41:47;;;;;;;4.05;2.78;;;8.80;99.90;;;;;;5059109;28;19916;-78
2022/04/25 07:44:13;;;;;;;4.68;3.30;;;8.90;99.90;;;;;;5058592;28;20124;-78
2022/04/25 07:46:44;;;;;;;3.72;2.58;;;8.90;99.90;;;;;;5058751;28;20025;-78
2022/04/25 07:49:10;;;;;;;4.57;2.72;;;9.00;99.90;;;;;;5057871;28;20115;-78
2022/04/25 07:51:37;;;;;;;4.70;3.08;;;9.10;99.90;;;;;;5058310;28;20029;-78
2022/04/25 07:54:06;;;;;;;6.57;3.60;;;9.10;99.90;;;;;;5058205;28;20025;-78
2022/04/25 07:56:33;;;;;;;4.70;2.25;;;9.20;99.90;;;;;;5057088;28;20033;-78
2022/04/25 07:59:02;;;;;;;3.92;2.17;;;9.20;99.90;;;;;;5057870;28;20029;-78
2022/04/25 08:01:28;;;;;;;2.83;1.70;;;9.20;99.90;;;;;;5056051;28;20024;-78
2022/04/25 08:03:55;;;;;;;2.40;1.40;;;9.30;99.90;;;;;;5057048;28;20021;-78
2022/04/25 08:06:21;;;;;;;1.75;1.15;;;9.30;99.90;;;;;;5054648;28;20112;-78
2022/04/25 08:08:54;;;;;;;1.67;1.10;;;9.30;99.90;;;;;;5054556;28;20123;-78
2022/04/25 08:11:20;;;;;;;6.10;2.42;;;9.30;99.90;;;;;;5056938;28;20017;-78
2022/04/25 08:19:16;;;;;;;2.00;1.15;;;9.50;99.90;;;;;;5044510;28;20071;-78
2022/04/25 08:21:43;;;;;;;2.95;1.00;;;9.60;99.90;;;;;;5056607;28;20070;-79
2022/04/25 08:24:10;;;;;;;0.95;0.50;;;9.90;99.90;;;;;;5054722;28;20032;-79
2022/04/25 08:26:36;;;;;;;0.93;0.60;;;10.10;99.90;;;;;;5055600;28;20100;-78
2022/04/25 08:29:03;;;;;;;1.17;0.57;;;10.30;99.90;;;;;;5056221;28;20568;-78
2022/04/25 08:31:29;;;;;;;2.58;0.80;;;10.40;99.90;;;;;;5055888;28;20389;-78
2022/04/25 08:33:59;;;;;;;1.70;0.80;;;10.40;99.90;;;;;;5056231;28;20100;-78
2022/04/25 08:36:24;;;;;;;1.23;0.63;;;10.50;99.90;;;;;;5054636;28;20028;-79
2022/04/25 08:38:51;;;;;;;1.05;0.50;;;10.60;99.90;;;;;;5056655;28;20021;-78
2022/04/25 08:41:21;;;;;;;11.45;6.05;;;10.70;99.90;;;;;;5056782;28;20021;-78
2022/04/25 08:43:51;;;;;;;6.20;3.60;;;10.80;99.90;;;;;;5056164;28;20017;-78
2022/04/25 08:46:18;;;;;;;2.90;1.70;;;10.80;99.90;;;;;;5056889;28;20051;-78
2022/04/25 08:48:44;;;;;;;1.35;0.80;;;10.90;99.90;;;;;;5055689;28;20019;-78
2022/04/25 08:51:11;;;;;;;1.23;0.80;;;10.90;99.90;;;;;;5055992;28;20025;-78
2022/04/25 08:53:39;;;;;;;1.00;0.77;;;10.90;99.90;;;;;;5055508;28;20079;-79
2022/04/25 08:56:09;;;;;;;1.13;0.63;;;10.90;99.90;;;;;;5055921;28;20048;-78
2022/04/25 08:58:41;;;;;;;4.57;0.82;;;11.00;99.90;;;;;;5054531;28;20037;-78
2022/04/25 09:01:12;;;;;;;1.83;0.70;;;11.20;99.90;;;;;;5055828;28;20020;-79
2022/04/25 09:03:38;;;;;;;1.42;0.90;;;11.20;99.90;;;;;;5054708;28;20017;-79
2022/04/25 09:06:05;;;;;;;0.80;0.50;;;11.20;99.90;;;;;;5055625;28;20029;-78
2022/04/25 09:08:32;;;;;;;1.08;0.70;;;11.30;99.90;;;;;;5053573;28;20114;-78
2022/04/25 09:12:09;;;;;;;1.40;0.70;;;11.30;99.90;;;;;;5053523;28;20032;-78
2022/04/25 09:13:45;;;;;;;1.40;0.80;;;11.30;99.90;;;;;;5054615;28;20491;-79
2022/04/25 09:16:13;;;;;;;1.70;0.75;;;11.40;99.90;;;;;;5054459;28;20028;-79
2022/04/25 09:18:38;;;;;;;1.80;1.02;;;11.50;99.90;;;;;;5054771;28;20545;-79
2022/04/25 09:21:05;;;;;;;1.67;1.02;;;11.50;99.90;;;;;;5053319;28;20133;-79
2022/04/25 09:23:32;;;;;;;1.70;1.00;;;11.70;99.90;;;;;;5054580;28;20075;-79
2022/04/25 09:26:28;;;;;;;1.63;0.90;;;11.90;99.90;;;;;;5054485;28;20180;-78
2022/04/25 09:28:57;;;;;;;2.70;1.40;;;12.10;99.90;;;;;;5052910;28;20393;-79
2022/04/25 09:31:25;;;;;;;3.60;2.58;;;12.10;99.90;;;;;;5053235;28;20139;-79
2022/04/25 09:33:51;;;;;;;3.15;1.13;;;12.10;99.90;;;;;;5053027;28;20028;-79
2022/04/25 09:36:17;;;;;;;3.53;1.30;;;12.10;99.90;;;;;;5054224;28;20040;-79
2022/04/25 09:38:44;;;;;;;2.60;1.10;;;12.20;99.90;;;;;;5055089;28;20040;-79
2022/04/25 09:41:12;;;;;;;2.60;1.27;;;12.20;99.90;;;;;;5053403;28;20500;-78
2022/04/25 09:43:40;;;;;;;13.98;2.78;;;12.30;99.90;;;;;;5052736;28;20107;-79
2022/04/25 09:46:08;;;;;;;7.13;1.50;;;12.40;99.90;;;;;;5054071;28;20424;-78
2022/04/25 09:48:36;;;;;;;4.40;1.10;;;12.50;99.90;;;;;;5054010;28;20067;-79
2022/04/25 09:51:02;;;;;;;2.38;1.13;;;12.60;99.90;;;;;;5057668;28;20024;-79
2022/04/25 09:53:50;;;;;;;3.40;1.33;;;12.70;99.90;;;;;;5057462;28;20051;-79
2022/04/25 09:56:17;;;;;;;2.05;1.27;;;12.80;99.90;;;;;;5055063;28;20021;-79
2022/04/25 09:58:44;;;;;;;7.43;4.25;;;12.80;99.90;;;;;;5056520;28;20489;-79
2022/04/25 10:01:11;;;;;;;6.75;4.50;;;12.90;99.90;;;;;;5056640;28;20111;-79
2022/04/25 10:03:37;;;;;;;2.55;1.60;;;13.00;99.90;;;;;;5055213;28;20491;-79
2022/04/25 10:06:04;;;;;;;3.85;1.50;;;13.10;99.90;;;;;;5055142;28;20048;-79
2022/04/25 10:08:34;;;;;;;1.52;0.90;;;13.20;99.60;;;;;;5054012;28;20021;-79
2022/04/25 10:11:06;;;;;;;2.28;1.23;;;13.30;99.90;;;;;;5053810;28;20471;-79
2022/04/25 10:13:32;;;;;;;2.05;1.27;;;13.30;99.60;;;;;;5052445;28;20082;-79
2022/04/25 10:15:58;;;;;;;2.20;1.38;;;13.30;99.10;;;;;;5054441;28;20082;-78
2022/04/25 10:18:26;;;;;;;2.38;1.45;;;13.30;98.50;;;;;;5053658;28;20389;-79
2022/04/25 10:20:52;;;;;;;3.47;1.60;;;13.30;98.40;;;;;;5053668;28;20061;-79
2022/04/25 10:23:18;;;;;;;2.65;1.40;;;13.40;97.60;;;;;;5053752;28;20104;-79
2022/04/25 10:25:49;;;;;;;3.60;1.60;;;13.60;96.30;;;;;;5053708;28;20028;-79
2022/04/25 10:28:20;;;;;;;2.83;1.75;;;13.70;96.60;;;;;;5053993;28;20416;-79
2022/04/25 10:30:48;;;;;;;3.30;1.70;;;13.80;95.50;;;;;;5053852;28;20048;-79
2022/04/25 10:33:20;;;;;;;2.70;1.35;;;14.00;96.50;;;;;;5053425;28;20029;-79
2022/04/25 10:35:50;;;;;;;6.03;3.00;;;14.10;94.50;;;;;;5053727;28;20032;-79
2022/04/25 10:44:17;;;;;;;3.25;1.85;;;14.40;93.90;;;;;;5057477;28;20100;-80
2022/04/25 10:47:18;;;;;;;2.53;1.45;;;14.50;92.70;;;;;;5057494;28;20025;-79
2022/04/25 10:49:53;;;;;;;2.60;1.48;;;14.40;92.20;;;;;;5057697;28;20021;-79
2022/04/25 10:52:37;;;;;;;2.53;1.60;;;14.40;91.70;;;;;;5057297;28;20489;-79
2022/04/25 10:55:29;;;;;;;3.75;1.60;;;14.50;91.40;;;;;;5056009;28;20029;-79
2022/04/25 10:58:05;;;;;;;2.58;1.70;;;14.60;92.50;;;;;;5057696;28;20021;-79
2022/04/25 11:00:45;;;;;;;2.83;1.52;;;14.70;92.80;;;;;;5057779;28;20500;-79
2022/04/25 11:03:26;;;;;;;3.40;1.70;;;14.50;90.10;;;;;;5057348;28;20422;-79
2022/04/25 11:06:03;;;;;;;2.30;1.70;;;14.40;91.70;;;;;;5055640;28;20029;-79
2022/04/25 11:08:34;;;;;;;3.90;2.70;;;14.70;92.20;;;;;;5057207;28;20013;-79
2022/04/25 11:11:14;;;;;;;3.30;2.08;;;14.90;93.50;;;;;;5057020;28;20025;-79
2022/04/25 11:13:49;;;;;;;3.08;2.25;;;14.80;87.20;;;;;;5057253;28;20107;-79
2022/04/25 11:16:24;;;;;;;4.18;1.70;;;14.60;90.20;;;;;;5056811;28;20036;-79
2022/04/25 11:19:22;;;;;;;3.35;2.42;;;14.40;89.20;;;;;;5057187;28;20051;-79
2022/04/25 11:21:53;;;;;;;4.05;1.90;;;14.40;90.00;;;;;;5052998;28;20041;-79
2022/04/25 11:24:33;;;;;;;3.55;1.80;;;14.40;91.50;;;;;;5056927;28;20146;-79
2022/04/25 11:27:01;;;;;;;2.57;1.73;;;14.30;91.60;;;;;;5055305;28;20116;-79
2022/04/25 11:29:27;;;;;;;2.38;1.52;;;14.40;91.60;;;;;;5055455;28;20389;-79
2022/04/25 11:32:21;;;;;;;3.20;1.70;;;14.40;90.60;;;;;;5056571;28;20497;-79
2022/04/25 11:34:48;;;;;;;2.88;1.58;;;14.60;89.70;;;;;;5056740;28;20029;-79
2022/04/25 11:37:14;;;;;;;4.03;2.13;;;14.70;86.30;;;;;;5056642;28;20029;-79
2022/04/25 11:39:52;;;;;;;4.32;2.05;;;14.60;85.60;;;;;;5056321;28;20512;-80
2022/04/25 11:42:18;;;;;;;4.35;2.33;;;14.50;86.70;;;;;;5054957;28;20024;-80
2022/04/25 11:44:44;;;;;;;2.90;1.80;;;14.40;84.90;;;;;;5056953;28;20039;-79
2022/04/25 11:47:10;;;;;;;2.80;1.90;;;14.40;88.90;;;;;;5055711;28;20115;-79
2022/04/25 11:49:39;;;;;;;3.60;2.28;;;14.40;85.20;;;;;;5056911;28;20061;-80
2022/04/25 11:52:05;;;;;;;3.20;1.90;;;14.50;85.40;;;;;;5059477;28;20032;-79
2022/04/25 11:54:33;;;;;;;4.30;2.10;;;14.70;84.20;;;;;;5057626;28;20377;-79
2022/04/25 11:57:03;;;;;;;3.95;2.00;;;14.80;86.80;;;;;;5056648;28;20033;-79
2022/04/25 11:59:29;;;;;;;2.63;1.73;;;14.90;83.40;;;;;;5059367;28;20036;-80
2022/04/25 12:01:55;;;;;;;5.47;1.95;;;14.90;81.10;;;;;;5058392;28;20032;-80
2022/04/25 12:04:35;;;;;;;3.78;2.05;;;14.80;81.10;;;;;;5060714;28;20044;-80
2022/04/25 12:07:11;;;;;;;4.13;2.00;;;14.70;83.20;;;;;;5066887;28;20025;-80
2022/04/25 12:18:18;;;;;;;3.28;1.85;;;15.80;80.30;;;;;;5066781;28;20150;-83
2022/04/25 12:20:49;;;;;;;2.65;1.90;;;16.20;77.40;;;;;;5068458;28;20029;-84
2022/04/25 12:23:47;;;;;;;3.65;1.83;;;16.40;79.40;;;;;;5066337;28;20025;-83
2022/04/25 12:26:21;;;;;;;3.63;1.50;;;16.60;76.80;;;;;;5054892;28;20063;-84
2022/04/25 12:28:52;;;;;;;3.60;1.80;;;16.50;75.10;;;;;;5063536;28;20021;-84
2022/04/25 12:31:19;;;;;;;4.65;1.90;;;16.50;73.20;;;;;;5064919;28;20081;-84
2022/04/25 12:33:47;;;;;;;3.67;1.58;;;16.40;75.60;;;;;;5063252;28;20096;-84
2022/04/25 12:36:16;;;;;;;2.83;1.80;;;16.60;74.80;;;;;;5063733;28;20059;-84
2022/04/25 12:39:03;;;;;;;2.92;1.80;;;16.80;72.20;;;;;;5062751;28;20028;-83
2022/04/25 12:41:34;;;;;;;2.97;1.83;;;17.10;70.80;;;;;;5063477;28;20152;-84
2022/04/25 12:44:13;;;;;;;4.38;2.00;;;17.10;71.70;;;;;;5061237;28;20028;-84
2022/04/25 12:46:40;;;;;;;3.83;1.90;;;16.90;69.50;;;;;;5061769;28;20025;-84
2022/04/25 12:49:13;;;;;;;2.47;1.60;;;16.80;68.80;;;;;;5061833;28;20025;-84
2022/04/25 12:51:42;;;;;;;3.03;1.80;;;16.70;68.40;;;;;;5061742;28;20056;-83
2022/04/25 12:54:32;;;;;;;3.33;1.60;;;16.70;67.30;;;;;;5061785;28;20025;-84
2022/04/25 12:57:15;;;;;;;2.58;1.60;;;16.90;71.30;;;;;;5077852;28;20388;-84
2022/04/25 12:59:56;;;;;;;3.45;1.48;;;17.10;72.30;;;;;;5061181;28;20025;-84
2022/04/25 13:02:32;;;;;;;3.58;1.80;;;17.00;67.40;;;;;;5061399;28;20089;-85
2022/04/25 13:05:13;;;;;;;2.88;1.83;;;17.00;68.60;;;;;;5061564;28;20025;-84
2022/04/25 13:07:45;;;;;;;3.20;1.63;;;17.00;67.10;;;;;;5059852;28;20025;-84
2022/04/25 13:10:21;;;;;;;2.67;1.83;;;17.10;67.80;;;;;;5059862;28;20401;-84
2022/04/25 13:12:50;;;;;;;15.43;1.70;;;17.10;67.40;;;;;;5061901;28;20025;-84
2022/04/25 13:15:19;;;;;;;3.15;1.65;;;17.10;70.40;;;;;;5060080;28;20025;-84
2022/04/25 13:17:45;;;;;;;2.30;1.60;;;17.30;66.70;;;;;;5060717;28;20067;-83
2022/04/25 13:20:20;;;;;;;2.60;1.70;;;17.40;63.80;;;;;;5061250;28;20025;-84
2022/04/25 13:22:46;;;;;;;2.20;1.48;;;17.50;65.40;;;;;;5059131;28;20037;-84
2022/04/25 13:25:14;;;;;;;2.30;1.40;;;17.60;66.90;;;;;;5060280;28;20035;-83
2022/04/25 13:27:41;;;;;;;2.10;1.40;;;17.50;65.30;;;;;;5060548;28;20388;-84
2022/04/25 13:30:08;;;;;;;1.75;1.35;;;17.60;63.40;;;;;;5059660;28;20091;-84
2022/04/25 13:32:34;;;;;;;2.30;1.30;;;17.80;63.80;;;;;;5058422;28;20076;-84
2022/04/25 13:35:00;;;;;;;;;;;17.80;66.90;;;;;;5059344;28;20413;-84
2022/04/25 13:37:29;;;;;;;;;;;17.70;61.30;;;;;;5057495;28;19905;-84